x

Yucatan Basin - 120 Nm Ese Of Cozumel, Mx (42056) Wave Buoy

11:50 - Thu 29th Jan 2015 All times are CST. -6 hours from GMT.

  • Sig Wave height 4.6ft
  • Swell Direction
  • Peak Period 7s
  • Average Period 5s
  • Wind
    16mph, 18mph gusts
  • Sea Temp 81°f
  • Air Temp 76°f
  • Sea Pressure 1018.8mb
  •  Yucatan Basin - 120 Nm Ese Of Cozumel, Mx
  •  Yucatan Basin - 120 Nm Ese Of Cozumel, Mx

More Historic Weather Station data

Upgrade to MSW Pro to gain access to the past 30 days of data for over 8000 Wavebouys and Weather Stations around the globe.

Join Pro

Comparision Forecast

View Surf forecast
   
jeu. 01/29 11:50 4.5ft 7s 5s 16 18 mph 1018.8mb 81f 76f
10:50 4.5ft 7s 5s 13 18 mph 1019mb 81f 76f
9:50 4.5ft 7s 5s 16 18 mph 1019.3mb 81f 76f
8:50 4.5ft 7s 5s 13 18 mph 1019.3mb 81f 76f
7:50 4.5ft 7s 5s 16 20 mph 1019mb 81f 75f
6:50 5ft 6s 5s 16 20 mph 1018.5mb 81f 75f
5:50 5ft 7s 5s 16 20 mph 1018.2mb 81f 75f
4:50 5ft 7s 5s 18 22 mph 1017.7mb 81f 75f
3:50 5ft 7s  -  18 22 mph 1017.4mb 81f 76f
2:50 5ft 6s 5s 18 22 mph 1017.4mb 81f 76f
1:50 4.5ft 7s 5s 16 20 mph 1017.6mb 81f 76f
11:50 5ft 7s 5s 16 20 mph 1019.3mb 81f 75f
10:50 5ft 7s 5s 16 20 mph 1020.1mb 81f 74f
9:50 6ft 7s 5s 20 25 mph 1020.3mb 81f 74f
8:50 6ft 7s 5s 20 25 mph 1020.2mb 81f 73f
7:50 6ft 7s 5s 20 27 mph 1019.4mb 81f 73f
6:50 6.5ft 7s 5s 20 25 mph 1018.7mb 81f 73f
5:50 6.5ft 7s 5s 20 22 mph 1018.2mb 81f 73f
4:50 6.5ft 6s 5s 20 27 mph 1017.3mb 81f 74f
3:50 5ft 6s 5s 22 29 mph 1016.9mb 81f 74f
2:50 4.5ft 6s 5s 25 29 mph 1016.7mb 81f 75f
1:50 4ft 5s 5s 22 27 mph 1017mb 81f 76f
12:50 3.5ft 5s 5s 16 20 mph 1017.7mb 81f 77f
mer. 01/28 11:50 3.5ft 6s 5s 16 20 mph 1018mb 81f 77f
10:50 3.5ft 6s 5s 16 20 mph 1018.6mb 81f 77f
9:50 3.5ft 5s 5s 16 20 mph 1018.8mb 81f 76f
8:50 3.5ft 6s 5s 18 20 mph 1018.7mb 81f 76f
7:50 3.5ft 6s 5s 16 20 mph 1018.5mb 81f 76f
6:50 3.5ft 5s 5s 16 20 mph 1018mb 81f 76f
5:50 3.5ft 5s 5s 16 22 mph 1017.6mb 81f 76f
4:50 3.5ft 5s 4s 16 20 mph 1017.5mb 81f 76f
3:50 3.5ft 5s 5s 16 20 mph 1017.2mb 81f 76f
2:50 3.5ft 5s 4s 16 20 mph 1017.3mb 81f 76f
1:50 3.5ft 5s 4s 18 22 mph 1017.5mb 81f 76f
12:50 3.5ft 5s 4s 13 18 mph 1018.2mb 81f 76f
10:50 3.5ft 8s 5s 16 20 mph 1019.7mb 81f 76f
9:50 3.5ft 8s 5s 16 18 mph 1020.1mb 81f 76f
8:50 3.5ft 8s 5s 16 20 mph 1020mb 81f 76f
7:50 3.5ft 9s 5s 18 22 mph 1019.2mb 81f 76f
6:50 3.5ft 8s 5s 16 20 mph 1018.7mb 81f 76f
5:50 3.5ft 5s 5s 16 20 mph 1018.3mb 81f 76f
4:50 3.5ft 8s 5s 16 20 mph 1017.8mb 81f 75f
3:50 4ft 5s 5s 18 20 mph 1017.3mb 81f 76f
2:50 3.5ft 8s 5s 18 25 mph 1017.3mb 81f 76f
1:50 4ft 9s 5s 16 20 mph 1017.5mb 81f 76f
12:50 3.5ft 9s 5s 18 22 mph 1017.8mb 81f 76f
mar. 01/27 11:50 3.5ft 10s 5s 16 20 mph 1018mb 81f 76f
10:50 4ft 10s 5s 16 18 mph 1018.3mb 81f 76f
9:50 4ft 10s 5s 16 18 mph 1018.8mb 81f 76f
8:50 4ft 8s 5s 13 16 mph 1018.7mb 81f 76f
7:50 4.5ft 10s 6s 16 18 mph 1018.3mb 81f 76f
6:50 4ft 10s 5s 16 20 mph 1017.8mb 81f 77f
5:50 5ft 10s 5s 16 18 mph 1017.5mb 81f 76f
4:50 5ft 10s 6s 13 18 mph 1017.2mb 81f 76f
3:50 4.5ft 10s 5s 16 22 mph 1016.7mb 81f 76f
2:50 4.5ft 10s 5s 16 20 mph 1016.5mb 81f 76f
1:50 4.5ft 10s 6s 13 18 mph 1016.7mb 81f 76f
12:50 4.5ft 10s 6s 13 18 mph 1017.1mb 81f 76f
11:50 4.5ft 10s 6s 13 18 mph 1017.9mb 81f 76f
10:50 4.5ft 11s 6s 16 20 mph 1018.5mb 81f 76f
9:50 5ft 9s 6s 13 18 mph 1019mb 81f 76f
8:50 5ft 8s 5s 13 16 mph 1019.1mb 81f 76f
7:50 4.5ft 7s 5s 16 20 mph 1018.6mb 81f 76f
6:50 4.5ft 6s 5s 16 20 mph 1017.9mb 81f 76f
5:50 5ft 6s 5s 18 22 mph 1017.5mb 81f 76f
4:50 5ft 7s 5s 18 25 mph 1017.1mb 81f 76f
3:50 4.5ft 6s 5s 18 22 mph 1016.7mb 81f 76f
2:50 4.5ft 7s 5s 20 25 mph 1016.6mb 81f 76f
1:50 4.5ft 6s 5s 18 22 mph 1016.8mb 81f 76f
12:50 4.5ft 7s 5s 18 22 mph 1017.2mb 81f 77f
lun. 01/26 11:50 4.5ft 7s 5s 18 22 mph 1017.4mb 81f 78f
10:50 4.5ft 7s 5s 20 22 mph 1017.7mb 81f 77f
9:50 4.5ft 7s 5s 16 18 mph 1018.2mb 81f 77f
8:50 4.5ft 6s 5s 16 18 mph 1017.9mb 81f 78f
7:50 4.5ft 6s 5s 18 25 mph 1017.5mb 81f 77f
6:50 4.5ft 6s 5s 20 25 mph 1017mb 81f 77f
5:50 4.5ft 6s 5s 20 25 mph 1016.4mb 81f 77f
4:50 4ft 6s 4s 20 25 mph 1016.1mb 81f 77f
3:50 3.5ft 5s 4s 18 22 mph 1015.9mb 81f 77f
2:50 3.5ft 5s 4s 20 25 mph 1015.4mb 81f 77f
1:50 3.5ft 5s 4s 13 20 mph 1016mb 81f 76f
12:50 3.5ft 4s 5s 16 20 mph 1016.5mb 81f 76f
11:50 3.5ft 5s 4s 16 22 mph 1017.5mb 81f 76f
10:50 3.5ft 8s 5s 16 20 mph 1018mb 81f 76f
9:50 3.5ft 8s 5s 16 20 mph 1018.2mb 81f 77f
8:50 3.5ft 8s 5s 16 20 mph 1018.3mb 81f 77f
7:50 3.5ft 9s 5s 16 18 mph 1017.9mb 81f 76f
6:50 3.5ft 9s 5s 16 20 mph 1017.5mb 81f 76f